Time;durP1;ratioP1;P1;durP2;ratioP2;P2;SDS_P1;SDS_P2;PMS_P1;PMS_P2;Temp;Humidity;BMP_temperature;BMP_pressure;BME280_temperature;BME280_humidity;BME280_pressure;Samples;Min_cycle;Max_cycle;Signal;HPM_P1;HPM_P2
2022/12/09 00:02:23;;;;;;;14.73;9.40;;;-3.30;99.90;;;;;;5086300;28;20205;-77
2022/12/09 00:04:50;;;;;;;14.50;9.48;;;-3.40;99.90;;;;;;5081288;28;20209;-77
2022/12/09 00:07:17;;;;;;;13.45;8.38;;;-3.40;99.90;;;;;;5078161;28;20696;-77
2022/12/09 00:09:44;;;;;;;13.38;8.68;;;-3.30;99.90;;;;;;5078889;28;20204;-77
2022/12/09 00:12:11;;;;;;;15.15;9.15;;;-3.20;99.90;;;;;;5081909;28;20292;-77
2022/12/09 00:14:38;;;;;;;12.68;9.57;;;-3.00;99.90;;;;;;5076802;28;20329;-77
2022/12/09 00:17:05;;;;;;;17.23;9.45;;;-2.90;99.90;;;;;;5080486;28;20297;-77
2022/12/09 00:19:34;;;;;;;11.88;8.80;;;-2.70;99.90;;;;;;5085559;28;20201;-77
2022/12/09 00:22:01;;;;;;;14.18;8.45;;;-2.60;99.90;;;;;;5070390;28;20646;-77
2022/12/09 00:24:28;;;;;;;11.95;8.52;;;-2.40;99.90;;;;;;5082260;28;20200;-77
2022/12/09 00:26:55;;;;;;;15.30;8.68;;;-2.30;99.90;;;;;;5079750;28;20260;-77
2022/12/09 00:29:22;;;;;;;13.05;7.80;;;-2.20;99.90;;;;;;5074411;28;20262;-77
2022/12/09 00:31:48;;;;;;;11.77;8.02;;;-2.10;99.90;;;;;;5085812;28;20259;-77
2022/12/09 00:34:15;;;;;;;10.38;8.02;;;-2.10;99.90;;;;;;5068235;28;20307;-77
2022/12/09 00:36:44;;;;;;;10.23;7.57;;;-2.00;99.90;;;;;;5075944;28;20237;-77
2022/12/09 00:39:12;;;;;;;12.35;7.68;;;-2.00;99.90;;;;;;5077354;28;20262;-77
2022/12/09 00:41:39;;;;;;;10.80;6.80;;;-1.90;99.90;;;;;;5086204;28;20291;-77
2022/12/09 00:44:06;;;;;;;8.68;6.70;;;-1.80;99.90;;;;;;5083915;28;20729;-77
2022/12/09 00:46:33;;;;;;;8.88;6.50;;;-1.80;99.90;;;;;;5073001;28;20320;-77
2022/12/09 00:49:00;;;;;;;9.75;6.55;;;-1.70;99.90;;;;;;5081237;28;20235;-77
2022/12/09 00:51:27;;;;;;;8.68;6.60;;;-1.70;99.90;;;;;;5074392;28;20692;-77
2022/12/09 00:53:55;;;;;;;12.57;7.13;;;-1.70;99.90;;;;;;5077072;28;20300;-77
2022/12/09 00:56:22;;;;;;;9.95;6.60;;;-1.80;99.90;;;;;;5075923;28;20236;-77
2022/12/09 00:58:49;;;;;;;7.45;6.25;;;-1.80;99.90;;;;;;5082362;28;20332;-77
2022/12/09 01:01:16;;;;;;;10.73;5.50;;;-1.80;99.90;;;;;;5083943;28;20238;-77
2022/12/09 01:03:43;;;;;;;7.47;4.70;;;-1.80;99.90;;;;;;5085522;28;20700;-77
2022/12/09 01:06:12;;;;;;;10.05;6.07;;;-1.70;99.90;;;;;;5078054;28;20493;-77
2022/12/09 01:08:40;;;;;;;7.82;5.10;;;-1.70;99.90;;;;;;5073222;28;20595;-77
2022/12/09 01:11:14;;;;;;;6.13;4.53;;;-1.60;99.90;;;;;;5081160;28;20239;-77
2022/12/09 01:13:41;;;;;;;7.65;5.05;;;-1.60;99.90;;;;;;5079792;28;20257;-77
2022/12/09 01:16:14;;;;;;;16.35;6.93;;;-1.50;99.90;;;;;;5075380;28;20254;-77
2022/12/09 01:18:41;;;;;;;8.43;6.72;;;-1.50;99.90;;;;;;5077371;28;20248;-77
2022/12/09 01:21:08;;;;;;;8.20;6.20;;;-1.50;99.90;;;;;;5069881;28;20268;-77
2022/12/09 01:23:35;;;;;;;14.32;7.32;;;-1.50;99.90;;;;;;5075616;28;20325;-77
2022/12/09 01:26:03;;;;;;;11.25;7.03;;;-1.40;99.90;;;;;;5080576;28;20290;-77
2022/12/09 01:28:32;;;;;;;13.48;8.95;;;-1.30;99.90;;;;;;5078493;28;20228;-77
2022/12/09 01:31:05;;;;;;;17.60;9.88;;;-1.20;99.90;;;;;;5087442;28;20596;-77
2022/12/09 01:33:32;;;;;;;15.57;9.85;;;-1.20;99.90;;;;;;5078047;28;20270;-77
2022/12/09 01:35:59;;;;;;;12.32;10.77;;;-1.20;99.90;;;;;;5083986;28;20239;-77
2022/12/09 01:38:26;;;;;;;15.18;11.10;;;-1.20;99.90;;;;;;5077575;28;20203;-77
2022/12/09 01:40:53;;;;;;;17.33;11.38;;;-1.30;99.90;;;;;;5081913;28;20243;-77
2022/12/09 01:43:20;;;;;;;17.73;9.40;;;-1.40;99.90;;;;;;5085941;28;20206;-77
2022/12/09 01:45:49;;;;;;;13.15;8.27;;;-1.40;99.90;;;;;;5083511;28;20236;-77
2022/12/09 01:48:19;;;;;;;12.05;9.35;;;-1.40;99.90;;;;;;5078778;28;20271;-77
2022/12/09 01:50:51;;;;;;;14.48;9.07;;;-1.40;99.90;;;;;;5075006;28;20651;-77
2022/12/09 01:53:23;;;;;;;19.42;9.75;;;-1.30;99.90;;;;;;5086996;28;20235;-77
2022/12/09 01:55:50;;;;;;;10.45;7.80;;;-1.40;99.90;;;;;;5078370;28;20295;-77
2022/12/09 01:58:18;;;;;;;11.77;8.55;;;-1.40;99.90;;;;;;5073319;28;20235;-77
2022/12/09 02:00:46;;;;;;;11.57;8.48;;;-1.30;99.90;;;;;;5085495;28;20243;-75
2022/12/09 02:03:15;;;;;;;11.55;8.02;;;-1.40;99.90;;;;;;5085242;28;20262;-77
2022/12/09 02:05:42;;;;;;;10.20;7.20;;;-1.40;99.90;;;;;;5082455;28;20235;-78
2022/12/09 02:08:12;;;;;;;11.90;6.43;;;-1.40;99.90;;;;;;5076691;28;20268;-78
2022/12/09 02:10:46;;;;;;;10.43;6.45;;;-1.30;99.90;;;;;;5070340;28;20250;-78
2022/12/09 02:13:24;;;;;;;12.47;6.43;;;-1.30;99.90;;;;;;5085025;28;20244;-78
2022/12/09 02:15:55;;;;;;;9.00;5.78;;;-1.30;99.90;;;;;;5070263;28;20563;-78
2022/12/09 02:18:29;;;;;;;10.27;7.45;;;-1.20;99.90;;;;;;5074910;28;20301;-78
2022/12/09 02:21:01;;;;;;;9.90;7.55;;;-1.10;99.90;;;;;;5068414;28;20196;-78
2022/12/09 02:23:33;;;;;;;13.77;8.45;;;-1.00;99.90;;;;;;5071154;28;20580;-78
2022/12/09 02:26:10;;;;;;;12.80;7.97;;;-0.90;99.90;;;;;;5073633;28;20720;-78
2022/12/09 02:28:56;;;;;;;10.45;8.02;;;-1.00;99.90;;;;;;5077175;28;20271;-78
2022/12/09 02:31:36;;;;;;;11.63;9.60;;;-1.10;99.90;;;;;;5086408;28;20204;-78
2022/12/09 02:34:11;;;;;;;10.50;8.05;;;-1.10;99.90;;;;;;5083960;28;20211;-78
2022/12/09 02:36:47;;;;;;;8.30;7.05;;;-1.10;99.90;;;;;;5077106;28;20314;-78
2022/12/09 02:39:14;;;;;;;11.77;6.93;;;-1.20;99.90;;;;;;5082030;28;20237;-78
2022/12/09 02:41:46;;;;;;;14.25;8.18;;;-1.30;99.90;;;;;;5076926;28;20292;-78
2022/12/09 02:44:17;;;;;;;15.57;9.95;;;-1.20;99.90;;;;;;5073848;28;20643;-76
2022/12/09 02:46:45;;;;;;;20.30;11.95;;;-1.30;99.90;;;;;;5077078;28;20264;-75
2022/12/09 02:49:15;;;;;;;27.73;14.10;;;-1.20;99.90;;;;;;5076257;28;20677;-76
2022/12/09 02:51:44;;;;;;;28.92;15.75;;;-1.00;99.90;;;;;;5079206;28;20518;-76
2022/12/09 02:54:14;;;;;;;23.85;16.02;;;-1.00;99.90;;;;;;5082864;28;20245;-76
2022/12/09 02:56:45;;;;;;;35.00;15.90;;;-0.90;99.90;;;;;;5071477;28;20610;-75
2022/12/09 02:59:12;;;;;;;26.95;14.27;;;-0.80;99.90;;;;;;5068783;28;20292;-75
2022/12/09 03:01:47;;;;;;;27.77;13.70;;;-0.80;99.90;;;;;;5066720;28;20204;-75
2022/12/09 03:04:18;;;;;;;19.77;12.60;;;-0.70;99.90;;;;;;5065192;28;20204;-75
2022/12/09 03:06:50;;;;;;;24.10;12.68;;;-0.70;99.90;;;;;;5067080;28;20746;-75
2022/12/09 03:09:20;;;;;;;17.20;12.18;;;-0.70;99.90;;;;;;5065379;28;20239;-76
2022/12/09 03:11:49;;;;;;;23.92;13.95;;;-0.70;99.90;;;;;;5079932;28;20655;-78
2022/12/09 03:14:19;;;;;;;21.40;13.60;;;-0.80;99.90;;;;;;5075357;28;20654;-78
2022/12/09 03:16:52;;;;;;;21.10;13.27;;;-0.80;99.90;;;;;;5076165;28;20770;-75
2022/12/09 03:19:24;;;;;;;34.58;17.98;;;-0.90;99.90;;;;;;5085963;28;20242;-75
2022/12/09 03:21:55;;;;;;;29.52;15.90;;;-0.80;99.90;;;;;;5073888;28;20230;-76
2022/12/09 03:24:27;;;;;;;36.97;17.48;;;-0.80;99.90;;;;;;5075997;28;20298;-76
2022/12/09 03:26:54;;;;;;;36.53;17.95;;;-0.80;99.90;;;;;;5076240;28;20220;-75
2022/12/09 03:29:24;;;;;;;36.50;19.65;;;-0.70;99.90;;;;;;5085435;28;20640;-75
2022/12/09 03:31:54;;;;;;;37.05;18.95;;;-0.70;99.90;;;;;;5083686;28;20228;-75
2022/12/09 03:34:28;;;;;;;45.80;19.33;;;-0.70;99.90;;;;;;5083875;28;20798;-76
2022/12/09 03:36:57;;;;;;;38.80;18.77;;;-0.70;99.90;;;;;;5086094;28;20678;-75
2022/12/09 03:39:28;;;;;;;46.25;18.25;;;-0.70;99.90;;;;;;5078599;28;20211;-75
2022/12/09 03:41:59;;;;;;;46.55;21.42;;;-0.70;99.90;;;;;;5069312;28;20725;-75
2022/12/09 03:44:30;;;;;;;37.45;20.48;;;-0.60;99.90;;;;;;5084948;28;20286;-76
2022/12/09 03:46:57;;;;;;;46.60;23.23;;;-0.60;99.90;;;;;;5075030;28;20298;-76
2022/12/09 03:49:26;;;;;;;47.83;21.45;;;-0.50;99.90;;;;;;5073188;28;20273;-75
2022/12/09 03:51:56;;;;;;;38.55;22.10;;;-0.50;99.90;;;;;;5073580;28;20301;-76
2022/12/09 03:54:27;;;;;;;35.77;18.60;;;-0.50;99.90;;;;;;5070759;28;20235;-76
2022/12/09 03:56:56;;;;;;;37.53;18.80;;;-0.50;99.90;;;;;;5078984;28;20508;-76
2022/12/09 03:59:25;;;;;;;44.00;22.20;;;-0.40;99.90;;;;;;5080470;28;20270;-75
2022/12/09 04:01:53;;;;;;;37.47;19.65;;;-0.40;99.90;;;;;;5085872;28;20239;-76
2022/12/09 04:04:20;;;;;;;43.50;19.50;;;-0.40;99.90;;;;;;5073633;28;20239;-76
2022/12/09 04:06:50;;;;;;;36.60;19.35;;;-0.50;99.90;;;;;;5078177;28;20865;-76
2022/12/09 04:09:17;;;;;;;39.20;20.13;;;-0.50;99.90;;;;;;5064245;28;20263;-76
2022/12/09 04:11:44;;;;;;;41.53;18.50;;;-0.50;99.90;;;;;;5085769;28;20230;-76
2022/12/09 04:14:11;;;;;;;46.20;20.45;;;-0.60;99.90;;;;;;5076923;28;20276;-75
2022/12/09 04:16:37;;;;;;;30.02;20.55;;;-0.60;99.90;;;;;;5071434;28;20207;-75
2022/12/09 04:19:04;;;;;;;31.77;17.02;;;-0.70;99.90;;;;;;5074865;28;20295;-76
2022/12/09 04:21:31;;;;;;;47.90;20.23;;;-0.70;99.90;;;;;;5084818;28;20244;-75
2022/12/09 04:24:00;;;;;;;37.78;21.10;;;-0.80;99.90;;;;;;5071264;28;20247;-76
2022/12/09 04:26:26;;;;;;;41.88;19.23;;;-0.90;99.90;;;;;;5067925;28;20211;-76
2022/12/09 04:28:53;;;;;;;31.85;19.67;;;-0.80;99.90;;;;;;5084648;28;20259;-76
2022/12/09 04:31:20;;;;;;;36.90;18.20;;;-0.80;99.90;;;;;;5084534;28;20246;-76
2022/12/09 04:33:48;;;;;;;39.72;20.67;;;-0.70;99.90;;;;;;5070698;28;20204;-76
2022/12/09 04:36:17;;;;;;;32.80;18.20;;;-0.70;99.90;;;;;;5082704;28;20215;-76
2022/12/09 04:38:44;;;;;;;31.15;18.17;;;-0.80;99.90;;;;;;5080806;28;20235;-76
2022/12/09 04:41:13;;;;;;;45.67;22.10;;;-0.80;99.90;;;;;;5083929;28;20308;-76
2022/12/09 04:43:40;;;;;;;32.55;18.65;;;-0.80;99.90;;;;;;5073520;28;20239;-75
2022/12/09 04:46:10;;;;;;;46.00;21.33;;;-0.80;99.90;;;;;;5079616;28;20242;-76
2022/12/09 04:48:37;;;;;;;155.43;40.55;;;-0.90;99.90;;;;;;5074632;28;20256;-75
2022/12/09 04:51:06;;;;;;;39.60;22.70;;;-1.00;99.90;;;;;;5080246;28;20230;-76
2022/12/09 04:53:33;;;;;;;43.92;22.67;;;-1.00;99.90;;;;;;5085669;28;20209;-76
2022/12/09 04:56:01;;;;;;;44.90;20.23;;;-1.00;99.90;;;;;;5078834;28;20229;-75
2022/12/09 04:58:30;;;;;;;52.13;24.15;;;-1.00;99.90;;;;;;5077689;28;20627;-75
2022/12/09 05:00:56;;;;;;;100.13;31.15;;;-1.00;99.90;;;;;;5069099;28;20275;-76
2022/12/09 05:03:23;;;;;;;81.50;24.70;;;-1.00;99.90;;;;;;5067898;28;20316;-76
2022/12/09 05:05:51;;;;;;;54.22;20.55;;;-0.90;99.90;;;;;;5069996;28;20637;-76
2022/12/09 05:08:17;;;;;;;136.40;38.65;;;-0.90;99.90;;;;;;5067908;28;20306;-76
2022/12/09 05:10:46;;;;;;;118.75;36.08;;;-0.90;99.90;;;;;;5079436;28;20211;-75
2022/12/09 05:13:13;;;;;;;180.05;42.38;;;-0.90;99.90;;;;;;5087870;28;20296;-76
2022/12/09 05:15:42;;;;;;;67.10;26.52;;;-0.80;99.90;;;;;;5073311;28;20239;-76
2022/12/09 05:18:08;;;;;;;133.52;36.78;;;-0.80;99.90;;;;;;5082512;28;20238;-76
2022/12/09 05:20:38;;;;;;;54.65;23.17;;;-0.70;99.90;;;;;;5084340;28;20208;-76
2022/12/09 05:23:06;;;;;;;54.90;24.38;;;-0.70;99.90;;;;;;5072265;28;20214;-76
2022/12/09 05:25:33;;;;;;;40.60;21.63;;;-0.70;99.90;;;;;;5080573;28;20254;-76
2022/12/09 05:28:00;;;;;;;40.97;22.08;;;-0.70;99.90;;;;;;5087803;28;20259;-76
2022/12/09 05:30:27;;;;;;;31.92;21.23;;;-0.70;99.90;;;;;;5080209;28;20269;-76
2022/12/09 05:32:55;;;;;;;33.47;20.33;;;-0.60;99.90;;;;;;5085043;28;20234;-76
2022/12/09 05:35:22;;;;;;;30.20;19.10;;;-0.60;99.90;;;;;;5077720;28;20233;-76
2022/12/09 05:37:50;;;;;;;33.67;19.80;;;-0.60;99.90;;;;;;5071272;28;20244;-76
2022/12/09 05:40:17;;;;;;;27.15;18.08;;;-0.60;99.90;;;;;;5069869;28;20260;-76
2022/12/09 05:42:44;;;;;;;34.65;20.38;;;-0.60;99.90;;;;;;5074976;28;20202;-76
2022/12/09 05:45:11;;;;;;;39.63;21.58;;;-0.60;99.90;;;;;;5068091;28;20239;-76
2022/12/09 05:47:38;;;;;;;34.90;18.83;;;-0.60;99.90;;;;;;5070855;28;20231;-76
2022/12/09 05:50:08;;;;;;;40.42;21.40;;;-0.50;99.90;;;;;;5070850;28;20255;-76
2022/12/09 05:52:36;;;;;;;37.13;21.83;;;-0.50;99.90;;;;;;5068043;28;20303;-76
2022/12/09 05:55:04;;;;;;;36.78;21.00;;;-0.50;99.90;;;;;;5071165;28;20282;-76
2022/12/09 05:57:31;;;;;;;44.83;21.20;;;-0.50;99.90;;;;;;5066043;28;20290;-75
2022/12/09 05:59:58;;;;;;;36.53;18.92;;;-0.50;99.90;;;;;;5069563;28;20561;-76
2022/12/09 06:02:25;;;;;;;35.47;19.47;;;-0.50;99.90;;;;;;5073040;28;20636;-76
2022/12/09 06:04:52;;;;;;;34.75;20.13;;;-0.40;99.90;;;;;;5074785;28;20977;-76
2022/12/09 06:07:20;;;;;;;34.00;17.23;;;-0.30;99.90;;;;;;5073844;28;20292;-76
2022/12/09 06:09:47;;;;;;;35.80;21.38;;;-0.30;99.90;;;;;;5073074;28;20353;-76
2022/12/09 06:12:14;;;;;;;37.60;18.25;;;-0.20;99.90;;;;;;5084553;28;20294;-76
2022/12/09 06:14:41;;;;;;;32.65;19.00;;;-0.10;99.90;;;;;;5071931;28;20292;-76
2022/12/09 06:17:09;;;;;;;30.55;18.35;;;-0.10;99.90;;;;;;5072284;28;20234;-76
2022/12/09 06:19:36;;;;;;;35.60;20.42;;;0.00;99.90;;;;;;5067900;28;20232;-76
2022/12/09 06:22:03;;;;;;;37.23;20.40;;;0.00;99.90;;;;;;5069503;28;20644;-77
2022/12/09 06:24:31;;;;;;;29.80;17.33;;;0.10;99.90;;;;;;5067326;28;20576;-77
2022/12/09 06:26:58;;;;;;;27.33;18.30;;;0.10;99.90;;;;;;5067009;28;20498;-78
2022/12/09 06:29:25;;;;;;;39.40;19.17;;;0.10;99.90;;;;;;5067678;28;20518;-78
2022/12/09 06:31:52;;;;;;;36.85;19.50;;;0.10;99.90;;;;;;5067739;28;20562;-78
2022/12/09 06:34:19;;;;;;;35.70;19.00;;;0.20;99.90;;;;;;5065884;28;20223;-77
2022/12/09 06:36:46;;;;;;;31.98;18.92;;;0.20;99.90;;;;;;5073085;28;20482;-77
2022/12/09 06:39:14;;;;;;;35.13;17.97;;;0.20;99.90;;;;;;5067968;28;20657;-77
2022/12/09 06:41:42;;;;;;;35.33;20.35;;;0.30;99.90;;;;;;5078219;28;20458;-77
2022/12/09 06:44:11;;;;;;;28.60;19.88;;;0.30;99.90;;;;;;5067272;28;20230;-77
2022/12/09 06:46:38;;;;;;;31.67;19.77;;;0.30;99.90;;;;;;5074567;28;20239;-77
2022/12/09 06:49:05;;;;;;;31.37;20.30;;;0.40;99.90;;;;;;5066518;28;20489;-78
2022/12/09 06:51:32;;;;;;;33.03;20.75;;;0.30;99.90;;;;;;5065526;28;20564;-78
2022/12/09 06:53:59;;;;;;;31.00;18.30;;;0.40;99.90;;;;;;5067525;28;20806;-78
2022/12/09 06:56:26;;;;;;;43.15;20.75;;;0.40;99.90;;;;;;5064997;28;20483;-78
2022/12/09 06:58:54;;;;;;;34.97;20.13;;;0.50;99.90;;;;;;5065431;28;20212;-78
2022/12/09 07:01:23;;;;;;;34.37;19.80;;;0.50;99.90;;;;;;5067226;28;20519;-78
2022/12/09 07:03:51;;;;;;;35.83;20.90;;;0.50;99.90;;;;;;5072410;28;20494;-78
2022/12/09 07:06:23;;;;;;;37.13;19.87;;;0.50;99.90;;;;;;5065212;28;21073;-79
2022/12/09 07:08:50;;;;;;;34.27;19.40;;;0.50;99.90;;;;;;5067107;28;20544;-78
2022/12/09 07:11:17;;;;;;;36.67;20.47;;;0.50;99.90;;;;;;5069600;28;20486;-78
2022/12/09 07:13:44;;;;;;;42.58;21.30;;;0.50;99.90;;;;;;5067046;28;20506;-78
2022/12/09 07:16:12;;;;;;;36.67;19.77;;;0.50;99.90;;;;;;5064515;28;20267;-78
2022/12/09 07:18:39;;;;;;;37.20;19.60;;;0.50;99.90;;;;;;5066429;28;20497;-79
2022/12/09 07:21:07;;;;;;;35.23;21.67;;;0.50;99.90;;;;;;5066609;28;20551;-79
2022/12/09 07:23:34;;;;;;;32.15;20.17;;;0.50;99.90;;;;;;5065067;28;20457;-79
2022/12/09 07:26:01;;;;;;;33.27;20.33;;;0.60;99.90;;;;;;5071755;28;20732;-79
2022/12/09 07:28:29;;;;;;;40.05;23.27;;;0.60;99.90;;;;;;5062937;28;20955;-79
2022/12/09 07:30:56;;;;;;;31.43;21.47;;;0.60;99.90;;;;;;5068422;28;20305;-79
2022/12/09 07:33:24;;;;;;;33.83;22.20;;;0.60;99.90;;;;;;5066500;28;20490;-80
2022/12/09 07:35:54;;;;;;;43.40;24.93;;;0.60;99.90;;;;;;5068294;28;20972;-81
2022/12/09 07:38:21;;;;;;;37.40;21.73;;;0.60;99.90;;;;;;5078252;28;20481;-80
2022/12/09 07:40:48;;;;;;;43.85;24.77;;;0.60;99.90;;;;;;5062739;28;20485;-81
2022/12/09 07:43:15;;;;;;;31.65;17.98;;;0.60;99.90;;;;;;5072183;28;20678;-80
2022/12/09 07:45:43;;;;;;;46.42;22.98;;;0.50;99.90;;;;;;5074250;28;20325;-80
2022/12/09 07:48:11;;;;;;;40.90;24.08;;;0.50;99.90;;;;;;5072490;28;20602;-80
2022/12/09 07:50:39;;;;;;;33.70;21.67;;;0.50;99.90;;;;;;5077579;28;20205;-81
2022/12/09 07:53:06;;;;;;;41.40;20.52;;;0.50;99.90;;;;;;5072000;28;20232;-81
2022/12/09 07:55:34;;;;;;;33.05;20.00;;;0.50;99.90;;;;;;5063121;28;20237;-81
2022/12/09 07:58:01;;;;;;;34.67;20.15;;;0.60;99.90;;;;;;5066844;28;20296;-80
2022/12/09 08:00:28;;;;;;;37.87;23.20;;;0.50;99.90;;;;;;5067787;28;20704;-80
2022/12/09 08:02:54;;;;;;;37.67;22.90;;;0.50;99.90;;;;;;5075678;28;20474;-80
2022/12/09 08:05:21;;;;;;;39.67;21.03;;;0.60;99.90;;;;;;5072222;28;20476;-80
2022/12/09 08:07:50;;;;;;;28.37;19.10;;;0.50;99.90;;;;;;5068074;28;20554;-80
2022/12/09 08:10:17;;;;;;;38.47;21.50;;;0.60;99.90;;;;;;5067540;28;20527;-80
2022/12/09 08:12:45;;;;;;;34.67;21.63;;;0.60;99.90;;;;;;5073224;28;20478;-81
2022/12/09 08:15:12;;;;;;;28.80;21.27;;;0.50;99.90;;;;;;5077400;28;20500;-80
2022/12/09 08:17:39;;;;;;;31.73;21.73;;;0.60;99.90;;;;;;5075369;28;20479;-80
2022/12/09 08:20:07;;;;;;;38.23;22.10;;;0.70;99.90;;;;;;5069899;28;21183;-80
2022/12/09 08:22:35;;;;;;;32.20;20.97;;;0.70;99.90;;;;;;5071105;28;20490;-80
2022/12/09 08:25:03;;;;;;;47.70;23.07;;;0.70;99.90;;;;;;5076984;28;20545;-81
2022/12/09 08:27:30;;;;;;;32.30;22.67;;;0.80;99.90;;;;;;5069963;28;20869;-81
2022/12/09 08:29:57;;;;;;;36.20;21.00;;;0.70;99.90;;;;;;5070165;28;20600;-81
2022/12/09 08:32:24;;;;;;;33.63;19.97;;;0.80;99.90;;;;;;5063320;28;20973;-80
2022/12/09 08:34:51;;;;;;;38.67;23.03;;;0.70;99.90;;;;;;5066672;28;20506;-80
2022/12/09 08:37:18;;;;;;;44.17;26.10;;;0.80;99.90;;;;;;5072605;28;20476;-81
2022/12/09 08:39:45;;;;;;;43.30;23.97;;;0.80;99.90;;;;;;5075389;28;20489;-81
2022/12/09 08:42:14;;;;;;;207.97;106.17;;;0.80;99.90;;;;;;5069319;28;20487;-81
2022/12/09 08:44:41;;;;;;;131.00;69.83;;;0.80;99.90;;;;;;5067360;28;20475;-81
2022/12/09 08:47:08;;;;;;;136.50;73.72;;;0.80;99.90;;;;;;5067257;28;20531;-81
2022/12/09 08:49:35;;;;;;;39.13;22.80;;;0.80;99.90;;;;;;5063332;28;20787;-81
2022/12/09 08:52:01;;;;;;;37.43;22.43;;;0.80;99.90;;;;;;5072721;28;20482;-81
2022/12/09 08:54:28;;;;;;;35.53;19.13;;;0.90;99.90;;;;;;5063560;28;20926;-81
2022/12/09 08:56:56;;;;;;;35.40;20.30;;;0.90;99.90;;;;;;5064986;28;20867;-80
2022/12/09 08:59:24;;;;;;;30.33;16.97;;;0.90;99.90;;;;;;5065325;28;20452;-80
2022/12/09 09:01:52;;;;;;;28.17;17.48;;;0.80;99.90;;;;;;5064784;28;20512;-80
2022/12/09 09:04:21;;;;;;;29.77;17.00;;;0.70;99.90;;;;;;5063708;28;20288;-81
2022/12/09 09:06:49;;;;;;;26.70;16.00;;;0.60;99.90;;;;;;5065718;28;20902;-80
2022/12/09 09:09:17;;;;;;;23.03;14.70;;;0.60;99.90;;;;;;5063630;28;20256;-80
2022/12/09 09:11:44;;;;;;;26.63;14.80;;;0.50;99.90;;;;;;5073745;28;20498;-81
2022/12/09 09:14:13;;;;;;;23.50;14.67;;;0.50;99.90;;;;;;5069848;28;20577;-80
2022/12/09 09:16:43;;;;;;;19.93;14.87;;;0.50;99.90;;;;;;5063038;28;20855;-81
2022/12/09 09:19:14;;;;;;;22.47;12.60;;;0.60;99.90;;;;;;5066987;28;20471;-81
2022/12/09 09:21:41;;;;;;;21.57;14.27;;;0.50;99.90;;;;;;5072469;28;20516;-80
2022/12/09 09:24:10;;;;;;;18.93;13.17;;;0.60;99.90;;;;;;5071131;28;20862;-80
2022/12/09 09:26:40;;;;;;;19.93;14.70;;;0.70;99.90;;;;;;5063670;28;20974;-80
2022/12/09 09:29:07;;;;;;;27.63;14.70;;;0.70;99.90;;;;;;5068225;28;20557;-80
2022/12/09 09:31:34;;;;;;;24.33;14.77;;;0.70;99.90;;;;;;5065742;28;21021;-80
2022/12/09 09:34:02;;;;;;;26.10;15.80;;;0.80;99.90;;;;;;5065093;28;20526;-80
2022/12/09 09:36:29;;;;;;;28.77;16.20;;;0.80;99.90;;;;;;5066558;28;20477;-80
2022/12/09 09:38:57;;;;;;;27.37;16.20;;;0.70;99.90;;;;;;5067407;28;20492;-80
2022/12/09 09:41:37;;;;;;;24.07;16.40;;;0.70;99.90;;;;;;5063590;28;20483;-80
2022/12/09 09:44:11;;;;;;;36.63;18.23;;;0.70;99.90;;;;;;5070574;28;20609;-80
2022/12/09 09:46:42;;;;;;;28.30;16.83;;;0.80;99.90;;;;;;5076623;28;20529;-80
2022/12/09 09:49:17;;;;;;;40.20;24.37;;;0.80;99.90;;;;;;5066846;28;20257;-80
2022/12/09 09:51:44;;;;;;;24.98;15.98;;;0.80;99.90;;;;;;5074349;28;20497;-80
2022/12/09 09:54:14;;;;;;;20.75;13.00;;;0.70;99.90;;;;;;5072473;28;20301;-80
2022/12/09 09:56:50;;;;;;;22.40;13.33;;;0.60;99.90;;;;;;5066031;28;20332;-80
2022/12/09 09:59:26;;;;;;;23.17;14.20;;;0.60;99.90;;;;;;5067570;28;20451;-80
2022/12/09 10:02:01;;;;;;;23.03;13.60;;;0.50;99.90;;;;;;5068768;28;20538;-80
2022/12/09 10:04:44;;;;;;;23.83;12.87;;;0.70;99.90;;;;;;5068400;28;20492;-80
2022/12/09 10:07:18;;;;;;;21.05;13.48;;;0.70;99.90;;;;;;5068606;28;20834;-80
2022/12/09 10:09:59;;;;;;;22.00;13.57;;;0.80;99.90;;;;;;5069379;28;20317;-80
2022/12/09 10:12:31;;;;;;;19.83;11.40;;;0.90;99.90;;;;;;5071959;28;20565;-80
2022/12/09 10:15:01;;;;;;;19.13;12.83;;;0.80;99.90;;;;;;5070736;28;20544;-80
2022/12/09 10:17:33;;;;;;;17.60;11.43;;;0.90;99.90;;;;;;5073100;28;20974;-80
2022/12/09 10:20:06;;;;;;;24.10;13.50;;;1.00;99.90;;;;;;5069155;28;20483;-81
2022/12/09 10:22:41;;;;;;;17.73;12.47;;;1.00;99.90;;;;;;5067764;28;21095;-81
2022/12/09 10:25:18;;;;;;;22.07;12.27;;;1.10;99.90;;;;;;5076495;28;20459;-80
2022/12/09 10:27:50;;;;;;;21.57;12.60;;;1.10;99.90;;;;;;5074874;28;20533;-81
2022/12/09 10:30:18;;;;;;;21.63;14.00;;;1.10;99.90;;;;;;5083125;28;20529;-80
2022/12/09 10:32:46;;;;;;;19.48;12.60;;;1.10;99.90;;;;;;5067147;28;20470;-80
2022/12/09 10:35:18;;;;;;;19.58;13.13;;;1.20;99.90;;;;;;5068159;28;20260;-80
2022/12/09 10:37:45;;;;;;;22.65;12.75;;;1.10;99.90;;;;;;5080716;28;20543;-80
2022/12/09 10:40:21;;;;;;;20.53;13.00;;;1.20;99.90;;;;;;5083111;28;20239;-81
2022/12/09 10:45:34;;;;;;;20.73;13.80;;;1.20;99.90;;;;;;5072293;28;20941;-80
2022/12/09 10:48:01;;;;;;;19.43;14.20;;;1.20;99.90;;;;;;5069309;28;20293;-80
2022/12/09 10:50:33;;;;;;;18.37;11.30;;;1.20;99.90;;;;;;5069685;28;20517;-80
2022/12/09 10:53:06;;;;;;;19.43;12.03;;;1.30;99.90;;;;;;5066816;28;20556;-80
2022/12/09 10:55:37;;;;;;;33.33;16.73;;;1.40;99.90;;;;;;5065173;28;20945;-80
2022/12/09 10:58:17;;;;;;;64.53;35.30;;;1.40;99.90;;;;;;5066680;28;20499;-80
2022/12/09 11:00:57;;;;;;;39.83;23.50;;;1.40;99.90;;;;;;5065174;28;20945;-80
2022/12/09 11:03:26;;;;;;;34.40;18.03;;;1.40;99.90;;;;;;5073169;28;21025;-80
2022/12/09 11:06:03;;;;;;;21.80;15.13;;;1.30;99.90;;;;;;5071627;28;20470;-80
2022/12/09 11:08:31;;;;;;;27.60;16.50;;;1.30;99.90;;;;;;5065238;28;20232;-80
2022/12/09 11:10:58;;;;;;;20.00;13.63;;;1.30;99.90;;;;;;5079202;28;20598;-79
2022/12/09 11:13:41;;;;;;;18.30;13.33;;;1.30;99.90;;;;;;5069116;28;20925;-79
2022/12/09 11:16:08;;;;;;;17.00;11.77;;;1.30;99.90;;;;;;5066517;28;20491;-80
2022/12/09 11:18:42;;;;;;;18.20;11.63;;;1.40;99.90;;;;;;5066372;28;20478;-80
2022/12/09 11:21:33;;;;;;;18.30;11.47;;;1.40;99.90;;;;;;5071709;28;20462;-80
2022/12/09 11:24:00;;;;;;;22.40;11.10;;;1.50;99.90;;;;;;5066220;28;20492;-80
2022/12/09 11:26:36;;;;;;;21.43;12.50;;;1.60;99.90;;;;;;5064856;28;20486;-80
2022/12/09 11:29:05;;;;;;;17.60;12.95;;;1.70;99.90;;;;;;5066003;28;20470;-80
2022/12/09 11:31:37;;;;;;;17.73;10.77;;;1.70;99.90;;;;;;5070345;28;20240;-80
2022/12/09 11:34:14;;;;;;;22.47;14.10;;;1.70;99.90;;;;;;5065675;28;20262;-80
2022/12/09 11:36:47;;;;;;;19.35;13.57;;;1.80;99.90;;;;;;5066421;28;20442;-80
2022/12/09 11:39:33;;;;;;;25.20;14.40;;;1.80;99.90;;;;;;5069569;28;20213;-80
2022/12/09 11:42:16;;;;;;;35.27;23.20;;;1.70;99.90;;;;;;5065598;28;20494;-78
2022/12/09 11:44:50;;;;;;;21.40;11.97;;;1.70;99.90;;;;;;5064448;28;20521;-78
2022/12/09 11:47:25;;;;;;;23.33;14.33;;;1.70;99.90;;;;;;5070353;28;20561;-78
2022/12/09 11:49:56;;;;;;;22.57;13.90;;;1.70;99.90;;;;;;5065777;28;20497;-77
2022/12/09 11:52:28;;;;;;;31.83;20.20;;;1.70;99.90;;;;;;5064866;28;20478;-77
2022/12/09 11:55:15;;;;;;;20.20;12.27;;;1.70;99.90;;;;;;5070294;28;20455;-76
2022/12/09 11:57:48;;;;;;;25.80;16.37;;;1.60;99.90;;;;;;5065598;28;21088;-76
2022/12/09 12:00:21;;;;;;;23.83;14.03;;;1.60;99.90;;;;;;5065188;28;20485;-75
2022/12/09 12:02:58;;;;;;;19.87;12.40;;;1.60;99.90;;;;;;5066133;28;20930;-75
2022/12/09 12:05:29;;;;;;;22.07;14.00;;;1.60;99.90;;;;;;5063363;28;20554;-76
2022/12/09 12:08:11;;;;;;;14.23;10.93;;;1.60;99.90;;;;;;5079600;28;21290;-75
2022/12/09 12:10:42;;;;;;;20.33;14.30;;;1.60;99.90;;;;;;5067146;28;20509;-76
2022/12/09 12:13:16;;;;;;;24.43;10.33;;;1.60;99.90;;;;;;5067841;28;20479;-75
2022/12/09 12:15:49;;;;;;;26.70;14.27;;;1.60;99.90;;;;;;5069407;28;21271;-76
2022/12/09 12:18:19;;;;;;;27.23;13.60;;;1.60;99.90;;;;;;5074965;28;20936;-76
2022/12/09 12:21:21;;;;;;;28.13;14.50;;;1.50;99.90;;;;;;5063386;28;20462;-75
2022/12/09 12:24:24;;;;;;;19.37;12.00;;;1.50;99.90;;;;;;5075842;28;20467;-75
2022/12/09 12:26:58;;;;;;;19.90;14.40;;;1.50;99.90;;;;;;5042490;28;20489;-75
2022/12/09 12:29:38;;;;;;;16.73;11.87;;;1.50;99.90;;;;;;5067108;28;20503;-75
2022/12/09 12:32:17;;;;;;;22.50;14.00;;;1.50;99.90;;;;;;5065752;28;20620;-75
2022/12/09 12:34:55;;;;;;;18.33;10.83;;;1.40;99.90;;;;;;5064203;28;20521;-75
2022/12/09 12:37:39;;;;;;;25.17;14.03;;;1.40;99.90;;;;;;5077424;28;20530;-75
2022/12/09 12:40:14;;;;;;;20.13;13.50;;;1.40;99.90;;;;;;5076431;28;20501;-75
2022/12/09 12:48:43;;;;;;;20.47;13.10;;;1.40;99.90;;;;;;5064620;28;20480;-75
2022/12/09 12:51:25;;;;;;;21.75;13.77;;;1.40;99.90;;;;;;5064100;28;20522;-75
2022/12/09 12:54:00;;;;;;;19.03;12.53;;;1.30;99.90;;;;;;5075022;28;20326;-75
2022/12/09 12:56:35;;;;;;;22.80;13.27;;;1.30;99.90;;;;;;5073170;28;20470;-75